createdAt,value
2022-09-28T00:06:48.905Z,214.80
2022-09-28T00:16:53.605Z,217.50
2022-09-28T00:27:01.418Z,215.10
2022-09-28T00:37:09.094Z,209.97
2022-09-28T00:47:49.581Z,215.17
2022-09-28T00:57:58.276Z,210.07
2022-09-28T01:08:04.746Z,217.07
2022-09-28T01:18:20.830Z,212.67
2022-09-28T01:28:29.402Z,208.67
2022-09-28T01:38:38.861Z,208.33
2022-09-28T01:48:48.771Z,212.47
2022-09-28T01:58:58.797Z,213.87
2022-09-28T02:09:09.760Z,206.87
2022-09-28T02:19:20.357Z,205.77
2022-09-28T02:29:26.129Z,201.87
2022-09-28T02:39:29.940Z,202.80
2022-09-28T02:49:44.847Z,200.77
2022-09-28T02:59:54.838Z,201.03
2022-09-28T03:10:04.980Z,197.90
2022-09-28T03:20:11.752Z,198.53
2022-09-28T03:30:17.302Z,195.23
2022-09-28T03:40:23.319Z,198.87
2022-09-28T03:50:28.045Z,199.47
2022-09-28T04:00:31.385Z,197.93
2022-09-28T04:10:36.220Z,203.53
2022-09-28T04:20:41.076Z,191.40
2022-09-28T04:30:50.172Z,196.97
2022-09-28T04:40:53.807Z,194.80
2022-09-28T04:51:00.982Z,193.73
2022-09-28T05:01:08.414Z,195.97
2022-09-28T05:11:53.112Z,193.23
2022-09-28T05:22:00.521Z,196.33
2022-09-28T05:32:05.277Z,196.47
2022-09-28T05:42:12.108Z,205.77
2022-09-28T05:52:17.049Z,202.30
2022-09-28T06:02:21.552Z,201.83
2022-09-28T06:12:27.021Z,196.67
2022-09-28T06:22:36.665Z,202.17
2022-09-28T06:32:44.995Z,203.63
2022-09-28T06:42:57.184Z,201.33
2022-09-28T06:53:23.049Z,205.03
2022-09-28T07:03:35.292Z,206.40
2022-09-28T07:13:58.431Z,212.70
2022-09-28T07:24:01.924Z,203.40
2022-09-28T07:34:25.033Z,199.87
2022-09-28T07:44:41.136Z,201.47
2022-09-28T07:54:47.181Z,200.33
2022-09-28T08:05:11.482Z,200.90
2022-09-28T08:15:16.497Z,198.20
2022-09-28T08:25:24.863Z,203.53
2022-09-28T08:35:29.852Z,206.10
2022-09-28T08:45:49.797Z,201.53
2022-09-28T08:56:31.627Z,199.93
2022-09-28T09:07:01.637Z,199.25
2022-09-28T09:17:30.073Z,202.13
2022-09-28T09:28:32.753Z,202.77
2022-09-28T09:38:54.992Z,196.23
2022-09-28T09:49:25.234Z,198.98
2022-09-28T09:59:35.261Z,198.65
2022-09-28T10:09:51.916Z,186.77
2022-09-28T10:20:07.428Z,190.43
2022-09-28T10:30:26.684Z,189.98
2022-09-28T10:40:44.548Z,181.55
2022-09-28T10:51:01.915Z,189.05
2022-09-28T11:01:12.318Z,193.75
2022-09-28T11:11:19.462Z,192.80
2022-09-28T11:21:32.223Z,188.20
2022-09-28T11:31:39.885Z,186.68
2022-09-28T11:42:01.160Z,185.23
2022-09-28T11:52:14.811Z,175.18
2022-09-28T12:02:26.919Z,180.82
2022-09-28T12:12:38.728Z,172.32
2022-09-28T12:22:57.086Z,170.05
2022-09-28T12:33:05.768Z,178.10
2022-09-28T12:43:33.429Z,165.07
2022-09-28T12:54:02.210Z,170.30
2022-09-28T13:04:29.643Z,171.10
2022-09-28T13:15:32.243Z,186.80
2022-09-28T13:25:41.896Z,185.98
2022-09-28T13:35:45.516Z,189.68
2022-09-28T13:45:56.843Z,199.75
2022-09-28T13:56:11.402Z,204.70
2022-09-28T14:06:28.096Z,199.17
2022-09-28T14:16:32.931Z,206.13
2022-09-28T14:27:08.708Z,210.60
2022-09-28T14:37:43.009Z,206.67
2022-09-28T14:48:16.747Z,221.07
2022-09-28T14:58:25.134Z,208.97
2022-09-28T15:08:39.705Z,208.23
2022-09-28T15:19:23.217Z,211.97
2022-09-28T15:29:31.664Z,210.60
2022-09-28T15:39:35.590Z,209.27
2022-09-28T15:49:47.466Z,208.10
2022-09-28T15:59:56.980Z,199.27
2022-09-28T16:10:06.833Z,211.80
2022-09-28T16:20:29.244Z,205.00
2022-09-28T16:30:35.584Z,215.33
2022-09-28T16:40:43.025Z,200.57
2022-09-28T16:50:48.432Z,201.40
2022-09-28T17:00:54.612Z,203.50
2022-09-28T17:11:22.841Z,203.13
2022-09-28T17:21:25.942Z,202.20
2022-09-28T17:31:31.204Z,211.40
2022-09-28T17:41:34.681Z,212.70
2022-09-28T17:51:39.455Z,219.13
2022-09-28T18:01:42.879Z,213.73
2022-09-28T18:11:49.577Z,209.87
2022-09-28T18:21:54.255Z,206.13
2022-09-28T18:31:58.895Z,210.70
2022-09-28T18:42:02.456Z,209.30
2022-09-28T18:52:07.201Z,210.37
2022-09-28T19:02:11.688Z,211.33
2022-09-28T19:12:16.338Z,205.13
2022-09-28T19:22:19.676Z,208.53
2022-09-28T19:32:24.347Z,206.13
2022-09-28T19:42:27.941Z,204.47
2022-09-28T19:52:32.609Z,205.00
2022-09-28T20:02:36.029Z,202.97
2022-09-28T20:12:42.482Z,205.90
2022-09-28T20:22:46.135Z,211.73
2022-09-28T20:32:51.045Z,206.27
2022-09-28T20:42:55.781Z,210.00
2022-09-28T20:53:00.691Z,206.33
2022-09-28T21:03:03.957Z,212.27
2022-09-28T21:13:08.832Z,203.60
2022-09-28T21:23:12.047Z,203.30
2022-09-28T21:33:16.678Z,203.23
2022-09-28T21:43:19.901Z,201.03
2022-09-28T21:53:24.981Z,201.60
2022-09-28T22:03:28.703Z,201.53
2022-09-28T22:13:35.415Z,200.00
2022-09-28T22:23:39.803Z,202.33
2022-09-28T22:33:44.489Z,199.67
2022-09-28T22:43:48.168Z,197.30
2022-09-28T22:53:52.922Z,200.13
2022-09-28T23:03:57.307Z,197.27
2022-09-28T23:14:01.924Z,204.13
2022-09-28T23:24:05.258Z,210.80
2022-09-28T23:34:12.241Z,200.57
2022-09-28T23:44:15.473Z,199.70
2022-09-28T23:54:20.088Z,195.43
